Latest Weather Observations for Richmond

IDN60801

Issued at 5:03 am EST Sunday 24 July 2016 (issued every 30 minutes, with the page automatically refreshed every 10 minutes)

About weather observations | Map of weather stations | Latest weather observations for NSW | Other Formats
Station Details ID: 067105 Name: RICHMOND RAAF Lat: -33.60 Lon: 150.78 Height: 19.0 m
Data from the previous 72 hours. | See also: Recent months at Richmond
Date/Time
EST
Temp
°C
App
Temp
°C
Dew
Point
°C
Rel
Hum
%
Delta-T
°C
Wind Press
QNH
hPa
Press
MSL
hPa
Rain since
9am
mm
Dir  Spd
km/h
Gust
km/h
Spd
kts
Gust
kts
24/05:00am 3.2 0.1 1.3 87 0.7 NW 7 9 4 5 1015.6 1015.6 0.0
24/04:30am 3.2 0.2 1.1 86 0.8 NNW 6 7 3 4 1015.2 1015.2 0.0
24/04:00am 3.4 0.4 1.0 84 0.9 ESE 6 7 3 4 1014.8 1014.8 0.0
24/03:30am 4.1 0.8 0.3 76 1.4 N 7 9 4 5 1015.0 1015.0 0.0
24/03:00am 4.3 2.3 0.1 74 1.6 CALM 0 0 0 0 1015.0 1015.0 0.0
24/02:30am 4.6 1.4 -0.4 70 1.9 WSW 6 7 3 4 1014.9 1014.9 0.0
24/02:00am 5.0 1.8 -0.2 69 2.0 S 6 7 3 4 1014.9 1014.9 0.0
24/01:30am 5.1 2.7 -0.5 67 2.1 NW 2 7 1 4 1015.0 1015.0 0.0
24/01:00am 7.5 2.9 -1.2 54 3.3 WSW 13 19 7 10 1014.6 1014.6 0.0
24/12:30am 7.9 3.3 -1.1 53 3.4 SW 13 19 7 10 1014.3 1014.3 0.0
24/12:00am 7.2 3.4 -0.7 57 3.0 WSW 9 11 5 6 1014.2 1014.2 0.0
 
Date/Time
EST
Temp
°C
App
Temp
°C
Dew
Point
°C
Rel
Hum
%
Delta-T
°C
Wind Press
QNH
hPa
Press
MSL
hPa
Rain since
9am
mm
Dir  Spd
km/h
Gust
km/h
Spd
kts
Gust
kts
23/11:30pm 8.5 4.7 -0.8 52 3.6 WSW 9 15 5 8 1014.1 1014.1 0.0
23/11:00pm 8.7 4.9 -1.1 50 3.8 W 9 15 5 8 1013.2 1013.2 0.0
23/10:30pm 10.1 4.7 -1.0 46 4.4 WSW 17 22 9 12 1013.2 1013.2 0.0
23/10:00pm 10.8 4.6 0.0 47 4.4 W 22 30 12 16 1012.6 1012.6 0.0
23/09:30pm 10.8 5.2 0.2 48 4.3 W 19 24 10 13 1012.0 1012.0 0.0
23/09:00pm 10.7 5.0 0.4 49 4.2 W 20 32 11 17 1011.3 1011.3 0.0
23/08:30pm 11.6 6.4 0.4 46 4.6 W 17 28 9 15 1011.1 1011.1 0.0
23/08:00pm 12.1 6.6 0.5 45 4.8 WSW 19 35 10 19 1010.6 1010.6 0.0
23/07:38pm 11.9 6.9 1.5 49 4.4 W 17 37 9 20 1010.0 1010.0 0.0
23/07:30pm 10.4 7.8 1.0 52 3.9 WSW 4 13 2 7 1009.9 1009.9 0.0
23/07:00pm 10.7 6.7 0.4 49 4.2 WNW 11 15 6 8 1009.2 1009.2 0.0
23/06:30pm 11.5 7.2 0.9 48 4.4 WNW 13 24 7 13 1008.9 1008.9 0.0
23/06:00pm 12.2 6.8 1.5 48 4.6 WNW 19 32 10 17 1008.4 1008.4 0.0
23/05:30pm 12.6 7.6 1.3 46 4.8 W 17 28 9 15 1007.8 1007.8 0.0
23/05:00pm 13.7 6.5 1.0 42 5.4 W 28 46 15 25 1007.3 1007.3 0.0
23/04:49pm 14.4 7.6 1.0 40 5.8 W 26 56 14 30 1007.1 1007.1 0.0
23/04:30pm 14.8 8.4 1.0 39 5.9 W 24 37 13 20 1006.8 1006.8 0.0
23/04:14pm 15.2 7.0 0.2 36 6.4 WSW 33 54 18 29 1006.3 1006.3 0.0
23/04:00pm 15.4 6.8 0.4 36 6.4 WSW 35 46 19 25 1005.9 1005.9 0.0
23/03:33pm 16.0 8.1 1.3 37 6.4 W 32 50 17 27 1005.5 1005.5 0.0
23/03:30pm 16.1 8.1 1.8 38 6.3 W 33 50 18 27 1005.6 1005.6 0.0
23/03:19pm 16.1 9.2 2.5 40 6.1 W 28 46 15 25 1005.4 1005.4 0.0
23/03:00pm 16.3 9.5 3.0 41 6.1 WNW 28 37 15 20 1005.2 1005.2 0.0
23/02:30pm 16.5 8.8 2.5 39 6.3 W 32 44 17 24 1004.8 1004.8 0.0
23/02:00pm 16.4 9.0 1.7 37 6.5 W 30 52 16 28 1004.4 1004.4 0.0
23/01:59pm 16.7 9.4 2.3 38 6.5 W 30 52 16 28 1004.5 1004.5 0.0
23/01:51pm 16.7 8.4 2.3 38 6.5 W 35 56 19 30 1004.4 1004.4 0.0
23/01:30pm 16.5 8.0 2.9 40 6.2 WNW 37 56 20 30 1004.3 1004.3 0.0
23/01:00pm 16.1 6.4 2.9 41 6.0 W 43 63 23 34 1004.6 1004.6 0.0
23/12:31pm 16.2 7.3 3.3 42 5.9 W 39 57 21 31 1004.8 1004.8 0.0
23/12:30pm 16.0 6.7 3.1 42 5.9 W 41 57 22 31 1004.8 1004.8 0.0
23/12:00pm 16.0 7.8 2.8 41 6.0 W 35 56 19 30 1004.9 1004.9 0.0
23/11:30am 15.9 7.0 3.0 42 5.9 W 39 59 21 32 1004.9 1004.9 0.0
23/11:00am 16.1 8.8 2.5 40 6.1 WNW 30 48 16 26 1005.4 1005.4 0.0
23/10:54am 15.6 8.5 1.4 38 6.2 W 28 48 15 26 1005.4 1005.4 0.0
23/10:30am 15.3 9.3 3.1 44 5.5 WNW 24 39 13 21 1005.5 1005.5 0.0
23/10:00am 15.1 8.2 2.6 43 5.6 WNW 28 50 15 27 1005.5 1005.5 0.0
23/09:37am 15.0 8.9 2.5 43 5.6 WNW 24 54 13 29 1005.5 1005.5 0.0
23/09:36am 14.8 8.5 1.7 41 5.7 WNW 24 54 13 29 1005.5 1005.5 0.0
23/09:30am 15.3 10.1 2.5 42 5.7 W 19 30 10 16 1005.6 1005.6 0.0
23/09:13am 14.8 7.8 1.7 41 5.7 W 28 50 15 27 1005.2 1005.2 0.0
23/09:00am 14.7 8.4 1.6 41 5.7 W 24 46 13 25 1005.1 1005.1 1.2
23/08:42am 14.2 5.7 0.8 40 5.7 W 35 76 19 41 1004.8 1004.8 1.2
23/08:30am 14.3 6.4 1.2 41 5.6 W 32 56 17 30 1004.6 1004.6 1.2
23/08:05am 14.2 7.0 0.8 40 5.7 W 28 52 15 28 1004.3 1004.3 1.2
23/08:00am 14.2 7.8 1.2 41 5.6 W 24 39 13 21 1004.1 1004.1 1.2
23/07:30am 14.2 6.4 1.8 43 5.4 WNW 32 50 17 27 1003.6 1003.6 1.2
23/07:00am 14.5 5.2 2.7 45 5.3 W 41 63 22 34 1003.1 1003.1 1.2
23/06:35am 14.6 7.9 3.7 48 5.0 W 28 50 15 27 1002.4 1002.4 1.2
23/06:30am 14.6 8.7 4.0 49 4.9 W 24 37 13 20 1002.2 1002.2 1.2
23/06:00am 14.9 6.8 5.4 53 4.5 WNW 37 56 20 30 1001.6 1001.6 1.2
23/05:30am 16.0 7.8 5.0 48 5.2 W 37 61 20 33 1000.5 1000.5 1.2
23/05:00am 16.2 7.7 5.2 48 5.3 W 39 59 21 32 999.7 999.7 1.2
23/04:30am 16.3 7.5 5.6 49 5.1 W 41 74 22 40 999.4 999.4 1.2
23/04:22am 16.6 7.8 5.6 48 5.3 W 41 74 22 40 999.0 999.0 1.2
23/04:00am 16.5 9.0 6.1 50 5.1 W 35 56 19 30 998.9 998.9 1.2
23/03:44am 16.9 10.6 5.8 48 5.4 W 28 56 15 30 998.7 998.7 1.2
23/03:30am 17.1 11.6 6.0 48 5.4 W 24 39 13 21 998.9 998.9 1.2
23/03:18am 17.2 10.0 5.8 47 5.5 W 33 54 18 29 998.7 998.7 1.2
23/03:00am 17.5 11.9 7.0 50 5.3 W 26 48 14 26 998.6 998.6 1.2
23/02:30am 17.6 13.9 9.5 59 4.2 WSW 19 32 10 17 998.1 998.1 1.2
23/02:00am 17.2 16.0 12.7 75 2.5 SW 11 22 6 12 997.9 997.9 1.2
23/01:30am 17.2 16.8 13.1 77 2.3 W 7 15 4 8 998.1 998.1 1.2
23/01:00am 19.7 17.5 14.9 74 2.8 WSW 20 43 11 23 998.0 998.0 1.0
23/12:30am 20.9 15.7 14.5 67 3.7 W 35 59 19 32 997.1 997.1 0.2
23/12:24am 21.5 17.2 14.4 64 4.2 WSW 30 59 16 32 997.2 997.2 0.2
23/12:00am 24.3 20.7 13.2 50 6.5 WNW 24 35 13 19 996.6 996.6 0.0
 
Date/Time
EST
Temp
°C
App
Temp
°C
Dew
Point
°C
Rel
Hum
%
Delta-T
°C
Wind Press
QNH
hPa
Press
MSL
hPa
Rain since
9am
mm
Dir  Spd
km/h
Gust
km/h
Spd
kts
Gust
kts
22/11:45pm 24.5 20.2 13.1 49 6.6 NW 28 46 15 25 996.1 996.1 0.0
22/11:30pm 24.4 18.8 13.3 50 6.5 NW 35 50 19 27 996.1 996.1 0.0
22/11:00pm 23.7 19.0 13.3 52 6.1 NW 30 48 16 26 996.1 996.1 0.0
22/10:35pm 23.4 18.8 13.6 54 5.7 NW 30 48 16 26 996.6 996.6 0.0
22/10:30pm 23.9 18.8 13.7 53 6.0 NNW 33 48 18 26 996.5 996.5 0.0
22/10:00pm 22.9 19.6 13.9 57 5.3 NNW 24 35 13 19 997.0 997.0 0.0
22/09:30pm 22.7 19.4 14.0 58 5.1 NNW 24 35 13 19 997.6 997.6 0.0
22/09:00pm 22.5 19.1 13.8 58 5.1 NNW 24 33 13 18 998.4 998.4 0.0
22/08:30pm 22.4 19.0 13.7 58 5.1 NNW 24 35 13 19 999.2 999.2 0.0
22/08:00pm 22.8 18.2 13.6 56 5.4 NNW 30 46 16 25 998.8 998.8 0.0
22/07:37pm 22.6 17.5 13.1 55 5.5 NNW 32 50 17 27 999.5 999.5 0.0
22/07:30pm 22.7 17.6 13.2 55 5.5 NW 32 43 17 23 999.6 999.6 0.0
22/07:00pm 22.3 18.1 13.4 57 5.2 NNW 28 35 15 19 999.6 999.6 0.0
22/06:30pm 22.3 18.8 13.4 57 5.1 NNW 24 35 13 19 999.5 999.5 0.0
22/06:00pm 22.1 19.4 13.5 58 5.0 NNW 20 30 11 16 1000.2 1000.2 0.0
22/05:30pm 22.8 18.9 13.3 55 5.5 NW 26 39 14 21 1000.3 1000.3 0.0
22/05:01pm 23.1 18.9 13.6 55 5.5 NW 28 48 15 26 1000.7 1000.7 0.0
22/05:00pm 23.2 19.4 13.7 55 5.6 NW 26 48 14 26 1000.6 1000.6 0.0
22/04:30pm 24.0 19.4 13.5 52 6.1 NW 30 43 16 23 1000.3 1000.3 0.0
22/04:03pm 24.6 19.4 13.5 50 6.5 NW 33 52 18 28 1000.2 1000.2 0.0
22/04:00pm 24.7 19.8 13.6 50 6.5 NW 32 46 17 25 1000.3 1000.3 0.0
22/03:30pm 25.4 22.1 13.9 49 6.8 NW 24 33 13 18 1001.0 1001.0 0.0
22/03:01pm 25.5 20.4 13.7 48 6.9 NW 33 52 18 28 1001.3 1001.3 0.0
22/03:00pm 25.5 20.4 13.7 48 7.0 NW 33 50 18 27 1001.3 1001.3 0.0
22/02:39pm 25.5 20.4 13.7 48 6.9 NW 33 54 18 29 1001.5 1001.5 0.0
22/02:30pm 25.6 21.2 14.1 49 6.8 NW 30 44 16 24 1001.7 1001.7 0.0
22/02:00pm 25.3 20.0 14.1 50 6.7 NW 35 57 19 31 1002.0 1002.0 0.0
22/01:34pm 25.3 19.6 14.1 50 6.6 NW 37 56 20 30 1002.4 1002.4 0.0
22/01:30pm 25.3 19.2 14.1 50 6.6 NW 39 56 21 30 1002.4 1002.4 0.0
22/01:24pm 25.3 19.6 14.1 50 6.6 NW 37 56 20 30 1002.3 1002.3 0.0
22/01:00pm 25.1 22.3 15.4 55 5.9 NW 24 37 13 20 1003.0 1003.0 0.0
22/12:40pm 24.2 20.1 14.9 56 5.6 NNW 30 48 16 26 1003.6 1003.6 0.0
22/12:30pm 24.5 19.6 14.3 53 6.0 NNW 33 48 18 26 1003.6 1003.6 0.0
22/12:29pm 24.4 19.8 14.5 54 5.9 NNW 32 48 17 26 1003.7 1003.7 0.0
22/12:00pm 22.6 20.5 15.2 63 4.4 N 20 30 11 16 1004.7 1004.7 0.0
22/11:30am 22.5 19.2 14.9 62 4.5 N 26 33 14 18 1005.3 1005.3 0.0
22/11:00am 22.6 19.7 15.0 62 4.5 N 24 35 13 19 1006.0 1006.0 0.0
22/10:30am 22.5 20.0 16.1 67 3.9 NNE 24 35 13 19 1007.0 1007.0 0.0
22/10:00am 19.9 16.2 14.9 73 2.9 NE 28 35 15 19 1007.8 1007.8 0.0
22/09:30am 19.5 16.1 14.7 74 2.8 NNE 26 32 14 17 1008.3 1008.3 0.0
22/09:00am 18.8 16.0 14.3 75 2.6 NNE 22 30 12 16 1008.9 1008.9 0.2
22/08:30am 18.0 15.6 14.3 79 2.1 NNE 20 30 11 16 1009.6 1009.6 0.2
22/08:00am 16.8 14.2 13.9 83 1.6 NNE 20 24 11 13 1010.0 1010.0 0.2
22/07:30am 15.4 13.4 13.8 90 0.9 N 17 22 9 12 1010.3 1010.3 0.2
22/07:00am 12.4 10.6 12.2 99 0.1 N 13 15 7 8 1010.6 1010.6 0.2
22/06:30am 8.9 8.3 8.8 99 0.0 N 2 9 1 5 1010.4 1010.4 0.2
22/06:22am 8.9 8.6 8.8 99 0.0 CALM 0 2 0 1 1010.4 1010.4 0.2
22/06:00am 8.8 8.5 8.7 99 0.0 CALM 0 0 0 0 1010.8 1010.8 0.2
22/05:42am 8.8 8.5 8.7 99 0.0 CALM 0 6 0 3 1011.1 1011.1 0.2
22/05:30am 9.3 9.1 9.2 99 0.0 CALM 0 0 0 0 1011.1 1011.1 0.2
22/05:00am 9.3 8.8 9.2 99 0.0 E 2 6 1 3 1011.1 1011.1 0.2
22/04:45am 9.9 8.8 9.8 99 0.1 ENE 6 7 3 4 1011.2 1011.2 0.2
22/04:40am 9.8 8.6 9.7 99 0.1 NE 6 9 3 5 1011.3 1011.3 0.2
22/04:30am 9.7 8.5 9.6 99 0.0 N 6 9 3 5 1011.1 1011.1 0.2
22/04:00am 8.8 8.1 8.7 99 0.0 NNE 2 9 1 5 1011.5 1011.5 0.2
22/03:30am 9.1 8.5 9.0 99 0.0 N 2 7 1 4 1012.0 1012.0 0.2
22/03:29am 9.1 8.5 9.0 99 0.0 N 2 7 1 4 1012.1 1012.1 0.2
22/03:00am 9.6 8.8 9.5 99 0.0 NW 4 9 2 5 1012.8 1012.8 0.2
22/02:30am 9.6 9.1 9.5 99 0.0 SW 2 6 1 3 1013.4 1013.4 0.2
22/02:00am 9.9 9.9 9.8 99 0.1 CALM 0 6 0 3 1013.4 1013.4 0.2
22/01:30am 10.2 10.3 10.1 99 0.1 CALM 0 0 0 0 1013.6 1013.6 0.2
22/01:00am 10.1 10.2 10.0 99 0.1 CALM 0 0 0 0 1013.9 1013.9 0.2
22/12:30am 10.4 10.5 10.2 99 0.1 CALM 0 0 0 0 1014.5 1014.5 0.0
22/12:00am 10.5 10.6 10.3 99 0.1 CALM 0 0 0 0 1014.9 1014.9 0.0
 
Date/Time
EST
Temp
°C
App
Temp
°C
Dew
Point
°C
Rel
Hum
%
Delta-T
°C
Wind Press
QNH
hPa
Press
MSL
hPa
Rain since
9am
mm
Dir  Spd
km/h
Gust
km/h
Spd
kts
Gust
kts
21/11:30pm 10.8 11.0 10.6 99 0.1 CALM 0 0 0 0 1015.2 1015.2 0.0
21/11:00pm 10.7 10.9 10.5 99 0.1 CALM 0 0 0 0 1015.1 1015.1 0.0
21/10:40pm 11.3 11.7 11.1 99 0.1 CALM 0 0 0 0 1015.3 1015.3 0.0
21/10:30pm 11.2 11.5 11.0 99 0.1 CALM 0 0 0 0 1015.4 1015.4 0.0
21/10:17pm 11.2 11.5 11.0 99 0.1 CALM 0 0 0 0 1015.3 1015.3 0.0
21/10:00pm 11.6 12.0 11.4 99 0.1 CALM 0 0 0 0 1015.4 1015.4 0.0
21/09:30pm 11.7 11.8 11.5 99 0.1 NW 2 6 1 3 1015.6 1015.6 0.0
21/09:14pm 12.1 12.7 11.9 99 0.1 CALM 0 6 0 3 1015.3 1015.3 0.0
21/09:00pm 12.0 12.5 11.7 98 0.2 CALM 0 0 0 0 1015.7 1015.7 0.0
21/08:50pm 12.0 12.5 11.7 98 0.2 CALM 0 0 0 0 1015.9 1015.9 0.0
21/08:30pm 12.6 13.3 12.3 98 0.2 CALM 0 0 0 0 1016.1 1016.1 0.0
21/08:18pm 12.9 13.7 12.6 98 0.2 CALM 0 0 0 0 1016.0 1016.0 0.0
21/08:15pm 12.8 13.6 12.5 98 0.2 CALM 0 0 0 0 1016.0 1016.0 0.0
21/08:00pm 12.9 13.7 12.6 98 0.2 CALM 0 0 0 0 1015.8 1015.8 0.0
21/07:58pm 12.9 13.7 12.6 98 0.2 CALM 0 0 0 0 1015.8 1015.8 0.0
21/07:30pm 13.9 15.0 13.6 98 0.2 CALM 0 0 0 0 1015.7 1015.7 0.0
21/07:00pm 14.1 15.2 13.6 97 0.3 CALM 0 0 0 0 1015.6 1015.6 0.0
21/06:30pm 14.8 15.6 13.8 94 0.6 ENE 2 6 1 3 1015.2 1015.2 0.0
21/06:00pm 15.4 15.5 13.9 91 0.8 ENE 6 7 3 4 1015.2 1015.2 0.0
21/05:30pm 16.1 15.6 13.8 86 1.3 ENE 9 9 5 5 1015.1 1015.1 0.0
21/05:00pm 17.2 16.7 13.9 81 1.9 ENE 9 13 5 7 1015.1 1015.1 0.0
21/04:30pm 18.3 17.9 14.0 76 2.5 ENE 9 11 5 6 1015.1 1015.1 0.0
21/04:00pm 18.6 18.3 14.3 76 2.5 NE 9 13 5 7 1015.1 1015.1 0.0
21/03:30pm 19.2 19.1 13.8 71 3.1 ENE 7 11 4 6 1015.3 1015.3 0.0
21/03:00pm 19.1 18.7 14.1 73 2.9 NE 9 13 5 7 1015.6 1015.6 0.0
21/02:30pm 18.9 18.2 14.2 74 2.7 E 11 15 6 8 1015.8 1015.8 0.0
21/02:00pm 18.5 18.8 14.6 78 2.3 SE 6 9 3 5 1016.1 1016.1 0.0
21/01:30pm 17.9 18.0 14.0 78 2.2 SSW 6 7 3 4 1016.6 1016.6 0.0
21/01:00pm 17.7 19.2 14.6 82 1.8 CALM 0 6 0 3 1017.1 1017.1 0.0
21/12:34pm 17.3 18.6 14.0 81 1.9 CALM 0 0 0 0 1017.4 1017.4 0.0
21/12:30pm 17.4 18.8 14.5 83 1.7 CALM 0 0 0 0 1017.4 1017.4 0.0
21/12:00pm 17.1 17.9 14.7 86 1.4 W 4 7 2 4 1018.1 1018.1 0.0
21/11:30am 16.5 16.7 14.7 89 1.0 WSW 7 11 4 6 1018.8 1018.8 0.0
21/11:00am 16.3 16.4 15.5 95 0.5 SW 9 15 5 8 1019.2 1019.2 0.0
21/10:30am 15.6 14.8 15.1 97 0.3 SSW 13 15 7 8 1019.7 1019.7 0.0
21/10:00am 15.3 14.8 15.0 98 0.2 SW 11 17 6 9 1019.9 1019.9 0.0
21/09:31am 14.9 14.7 14.6 98 0.2 SW 9 13 5 7 1020.1 1020.1 0.0
21/09:30am 15.1 14.9 14.8 98 0.2 SW 9 11 5 6 1020.1 1020.1 0.0
21/09:12am 14.8 14.5 14.5 98 0.2 SSW 9 15 5 8 1020.1 1020.1 0.0
21/09:01am 14.8 14.9 14.5 98 0.2 SW 7 11 4 6 1020.2 1020.2 0.0
21/09:00am 14.7 14.8 14.4 98 0.2 SW 7 11 4 6 1020.2 1020.2 16.8
21/08:30am 14.5 14.7 14.2 98 0.2 SW 6 7 3 4 1020.2 1020.2 16.8
21/08:22am 14.5 14.7 14.2 98 0.2 WSW 6 7 3 4 1020.1 1020.1 16.8
21/08:18am 14.4 14.6 14.1 98 0.2 WSW 6 7 3 4 1020.0 1020.0 16.8
21/08:00am 14.3 14.2 14.0 98 0.2 WSW 7 9 4 5 1019.9 1019.9 16.6
21/07:30am 14.2 14.1 13.9 98 0.2 WSW 7 9 4 5 1019.9 1019.9 16.6
21/07:11am 14.1 14.0 13.8 98 0.2 WSW 7 9 4 5 1019.8 1019.8 16.6
21/07:00am 14.2 14.0 13.6 96 0.3 WSW 7 11 4 6 1019.7 1019.7 16.6
21/06:58am 14.2 14.2 13.6 96 0.3 WSW 6 11 3 6 1019.7 1019.7 16.6
21/06:30am 14.3 14.3 13.5 95 0.4 WSW 6 7 3 4 1019.5 1019.5 16.6
21/06:00am 14.3 14.0 13.3 94 0.6 SSW 7 11 4 6 1019.1 1019.1 16.6
21/05:30am 14.3 13.6 13.2 93 0.6 SW 9 11 5 6 1019.3 1019.3 16.6

Other Formats:

Comma delimited format used in spreadsheet applications
http://www.bom.gov.au/fwo/IDN60801/IDN60801.95753.axf

JavaScript Object Notation format (JSON) in row-major order
http://www.bom.gov.au/fwo/IDN60801/IDN60801.95753.json